createdAt,value
2019-05-18T00:00:19.532Z,13.31
2019-05-18T00:03:26.004Z,13.34
2019-05-18T00:06:33.541Z,13.31
2019-05-18T00:09:39.881Z,13.29
2019-05-18T00:12:46.231Z,13.34
2019-05-18T00:15:52.607Z,13.31
2019-05-18T00:18:59.055Z,13.34
2019-05-18T00:22:05.542Z,13.36
2019-05-18T00:25:12.079Z,13.34
2019-05-18T00:28:18.816Z,13.35
2019-05-18T00:31:25.218Z,13.36
2019-05-18T00:34:31.742Z,13.34
2019-05-18T00:37:38.020Z,13.32
2019-05-18T00:40:44.546Z,13.31
2019-05-18T00:43:51.235Z,13.33
2019-05-18T00:46:57.599Z,13.34
2019-05-18T00:50:04.125Z,13.32
2019-05-18T00:53:10.614Z,13.30
2019-05-18T00:56:16.972Z,13.26
2019-05-18T00:59:23.507Z,13.27
2019-05-18T01:02:29.994Z,13.26
2019-05-18T01:05:38.125Z,13.18
2019-05-18T01:09:04.974Z,13.17
2019-05-18T01:12:29.512Z,13.14
2019-05-18T01:15:54.155Z,13.12
2019-05-18T01:19:18.491Z,13.09
2019-05-18T01:22:43.302Z,13.12
2019-05-18T01:26:08.742Z,13.11
2019-05-18T01:29:33.341Z,13.05
2019-05-18T01:32:57.700Z,13.01
2019-05-18T01:36:22.090Z,12.99
2019-05-18T01:39:46.514Z,12.93
2019-05-18T01:43:11.239Z,12.94
2019-05-18T01:46:17.834Z,12.83
2019-05-18T01:49:24.303Z,12.83
2019-05-18T01:52:30.802Z,12.83
2019-05-18T01:55:37.098Z,12.82
2019-05-18T01:58:43.539Z,12.77
2019-05-18T02:01:51.009Z,12.69
2019-05-18T02:04:57.636Z,12.72
2019-05-18T02:08:04.036Z,12.65
2019-05-18T02:11:10.479Z,12.61
2019-05-18T02:14:16.898Z,12.59
2019-05-18T02:17:23.258Z,12.56
2019-05-18T02:20:29.666Z,12.55
2019-05-18T02:23:36.360Z,12.53
2019-05-18T02:26:42.919Z,12.51
2019-05-18T02:29:49.785Z,12.47
2019-05-18T02:32:56.154Z,12.44
2019-05-18T02:36:02.562Z,12.45
2019-05-18T02:39:10.000Z,12.43
2019-05-18T02:42:16.499Z,12.46
2019-05-18T02:45:22.928Z,12.45
2019-05-18T02:48:45.815Z,12.45
2019-05-18T02:51:38.008Z,12.42
2019-05-18T02:54:44.421Z,12.42
2019-05-18T02:57:50.817Z,12.48
2019-05-18T03:00:57.358Z,12.50
2019-05-18T03:04:03.916Z,12.50
2019-05-18T03:07:10.370Z,12.51
2019-05-18T03:10:16.747Z,12.49
2019-05-18T03:13:23.090Z,12.52
2019-05-18T03:16:29.482Z,12.50
2019-05-18T03:19:36.102Z,12.49
2019-05-18T03:22:42.460Z,12.52
2019-05-18T03:25:48.985Z,12.52
2019-05-18T03:28:55.474Z,12.51
2019-05-18T03:32:01.910Z,12.50
2019-05-18T03:35:08.487Z,12.51
2019-05-18T03:38:15.109Z,12.49
2019-05-18T03:41:21.540Z,12.50
2019-05-18T03:44:28.034Z,12.49
2019-05-18T03:47:34.421Z,12.50
2019-05-18T03:50:40.942Z,12.52
2019-05-18T03:53:47.308Z,12.53
2019-05-18T03:56:53.900Z,12.52
2019-05-18T04:00:00.582Z,12.55
2019-05-18T04:03:06.937Z,12.56
2019-05-18T04:06:13.476Z,12.58
2019-05-18T04:09:19.982Z,12.58
2019-05-18T04:12:26.379Z,12.61
2019-05-18T04:15:32.942Z,12.64
2019-05-18T04:18:39.370Z,12.66
2019-05-18T04:21:45.890Z,12.68
2019-05-18T04:24:52.302Z,12.68
2019-05-18T04:27:58.955Z,12.71
2019-05-18T04:31:05.282Z,12.73
2019-05-18T04:34:12.003Z,12.74
2019-05-18T04:37:18.367Z,12.76
2019-05-18T04:40:24.984Z,12.79
2019-05-18T04:43:31.455Z,12.79
2019-05-18T04:46:38.836Z,12.81
2019-05-18T04:50:03.812Z,12.84
2019-05-18T04:52:54.927Z,12.86
2019-05-18T04:56:01.363Z,12.88
2019-05-18T04:59:07.851Z,12.90
2019-05-18T05:02:14.296Z,12.91
2019-05-18T05:05:20.662Z,12.91
2019-05-18T05:08:26.986Z,12.95
2019-05-18T05:11:33.564Z,12.97
2019-05-18T05:14:39.937Z,13.01
2019-05-18T05:17:46.568Z,13.04
2019-05-18T05:20:53.128Z,13.08
2019-05-18T05:23:59.463Z,13.11
2019-05-18T05:27:06.884Z,13.13
2019-05-18T05:30:13.829Z,13.15
2019-05-18T05:33:20.285Z,13.17
2019-05-18T05:36:27.059Z,13.21
2019-05-18T05:39:33.477Z,13.25
2019-05-18T05:42:39.790Z,13.28
2019-05-18T05:45:46.202Z,13.30
2019-05-18T05:48:52.798Z,13.33
2019-05-18T05:51:59.240Z,13.38
2019-05-18T05:55:05.921Z,13.41
2019-05-18T05:58:12.342Z,13.45
2019-05-18T06:01:18.768Z,13.47
2019-05-18T06:04:25.286Z,13.52
2019-05-18T06:07:31.727Z,13.58
2019-05-18T06:10:38.216Z,13.63
2019-05-18T06:13:44.724Z,13.67
2019-05-18T06:16:51.201Z,13.70
2019-05-18T06:19:59.197Z,13.73
2019-05-18T06:23:05.720Z,13.77
2019-05-18T06:26:12.202Z,13.81
2019-05-18T06:29:18.654Z,13.80
2019-05-18T06:32:25.198Z,13.80
2019-05-18T06:35:31.742Z,13.94
2019-05-18T06:38:38.352Z,13.97
2019-05-18T06:41:44.697Z,14.04
2019-05-18T06:44:51.298Z,14.11
2019-05-18T06:47:57.699Z,14.14
2019-05-18T06:51:07.202Z,14.20
2019-05-18T06:54:12.398Z,14.23
2019-05-18T06:57:18.917Z,14.31
2019-05-18T07:00:25.380Z,14.41
2019-05-18T07:03:31.970Z,14.44
2019-05-18T07:06:38.450Z,14.44
2019-05-18T07:09:44.986Z,14.59
2019-05-18T07:12:51.296Z,14.57
2019-05-18T07:16:00.623Z,14.60
2019-05-18T07:19:07.148Z,14.69
2019-05-18T07:22:13.604Z,14.76
2019-05-18T07:25:20.188Z,14.82
2019-05-18T07:28:28.937Z,14.85
2019-05-18T07:31:35.500Z,14.91
2019-05-18T07:34:42.287Z,14.96
2019-05-18T07:37:48.979Z,15.08
2019-05-18T07:40:55.805Z,15.08
2019-05-18T07:44:05.689Z,15.24
2019-05-18T07:47:21.261Z,15.39
2019-05-18T07:50:29.293Z,15.40
2019-05-18T07:53:35.993Z,15.51
2019-05-18T07:56:43.480Z,15.71
2019-05-18T07:59:50.126Z,15.88
2019-05-18T08:02:56.680Z,16.12
2019-05-18T08:06:04.341Z,16.24
2019-05-18T08:09:10.765Z,16.28
2019-05-18T08:12:23.371Z,16.39
2019-05-18T08:15:29.954Z,16.51
2019-05-18T08:18:37.589Z,16.67
2019-05-18T08:21:52.911Z,16.82
2019-05-18T08:24:52.163Z,16.85
2019-05-18T08:27:58.753Z,16.99
2019-05-18T08:31:05.287Z,17.02
2019-05-18T08:34:11.749Z,17.03
2019-05-18T08:37:18.483Z,17.11
2019-05-18T08:40:24.975Z,17.12
2019-05-18T08:43:31.672Z,17.12
2019-05-18T08:46:38.261Z,17.09
2019-05-18T08:49:44.954Z,17.34
2019-05-18T08:52:53.916Z,17.48
2019-05-18T08:56:00.411Z,17.53
2019-05-18T08:59:06.789Z,17.42
2019-05-18T09:02:13.188Z,17.45
2019-05-18T09:05:19.780Z,17.50
2019-05-18T09:08:26.301Z,17.54
2019-05-18T09:11:34.305Z,17.62
2019-05-18T09:14:41.952Z,17.91
2019-05-18T09:17:49.932Z,17.87
2019-05-18T09:20:56.491Z,18.03
2019-05-18T09:24:03.185Z,18.15
2019-05-18T09:27:09.725Z,18.03
2019-05-18T09:30:16.512Z,18.22
2019-05-18T09:33:23.037Z,18.28
2019-05-18T09:36:29.513Z,18.44
2019-05-18T09:39:36.137Z,18.65
2019-05-18T09:42:42.718Z,18.68
2019-05-18T09:45:49.342Z,18.70
2019-05-18T09:48:55.868Z,18.72
2019-05-18T09:52:02.677Z,18.84
2019-05-18T09:55:10.957Z,19.02
2019-05-18T09:58:18.429Z,19.32
2019-05-18T10:01:24.983Z,19.38
2019-05-18T10:04:31.462Z,19.52
2019-05-18T10:07:38.116Z,19.62
2019-05-18T10:10:56.883Z,19.73
2019-05-18T10:14:00.779Z,19.72
2019-05-18T10:17:07.317Z,20.15
2019-05-18T10:20:14.406Z,20.35
2019-05-18T10:23:20.949Z,20.30
2019-05-18T10:26:27.412Z,20.32
2019-05-18T10:29:33.969Z,20.32
2019-05-18T10:32:40.442Z,20.61
2019-05-18T10:35:47.023Z,20.61
2019-05-18T10:38:53.458Z,20.77
2019-05-18T10:42:00.081Z,20.83
2019-05-18T10:45:06.868Z,20.98
2019-05-18T10:48:17.689Z,20.98
2019-05-18T10:51:24.160Z,21.16
2019-05-18T10:54:30.744Z,21.10
2019-05-18T10:57:37.284Z,20.89
2019-05-18T11:00:43.848Z,21.02
2019-05-18T11:03:50.311Z,20.94
2019-05-18T11:06:57.699Z,20.88
2019-05-18T11:10:04.597Z,20.95
2019-05-18T11:13:11.170Z,21.14
2019-05-18T11:16:19.108Z,21.26
2019-05-18T11:19:25.609Z,21.24
2019-05-18T11:22:33.658Z,21.19
2019-05-18T11:25:40.527Z,20.94
2019-05-18T11:28:47.240Z,21.05
2019-05-18T11:31:53.762Z,21.09
2019-05-18T11:35:01.008Z,21.10
2019-05-18T11:38:10.103Z,21.10
2019-05-18T11:41:16.650Z,21.18
2019-05-18T11:44:23.574Z,21.38
2019-05-18T11:47:30.915Z,21.38
2019-05-18T11:50:37.514Z,21.33
2019-05-18T11:53:57.214Z,21.49
2019-05-18T11:56:52.265Z,21.60
2019-05-18T11:59:58.757Z,21.44
2019-05-18T12:03:05.279Z,21.44
2019-05-18T12:06:11.724Z,21.37
2019-05-18T12:09:18.252Z,21.33
2019-05-18T12:12:24.816Z,21.30
2019-05-18T12:15:32.143Z,21.40
2019-05-18T12:18:39.481Z,21.60
2019-05-18T12:21:47.524Z,21.65
2019-05-18T12:24:54.143Z,21.71
2019-05-18T12:28:00.677Z,21.73
2019-05-18T12:31:07.158Z,21.58
2019-05-18T12:34:13.623Z,21.56
2019-05-18T12:37:23.965Z,21.72
2019-05-18T12:40:30.447Z,21.72
2019-05-18T12:43:37.858Z,21.82
2019-05-18T12:46:44.796Z,21.81
2019-05-18T12:49:51.346Z,21.88
2019-05-18T12:52:57.986Z,22.02
2019-05-18T12:56:04.492Z,22.17
2019-05-18T12:59:10.875Z,22.24
2019-05-18T13:02:17.447Z,22.31
2019-05-18T13:05:24.916Z,22.47
2019-05-18T13:08:31.292Z,22.58
2019-05-18T13:11:37.810Z,22.74
2019-05-18T13:14:44.379Z,22.85
2019-05-18T13:17:50.926Z,22.81
2019-05-18T13:20:57.374Z,22.80
2019-05-18T13:24:03.768Z,22.73
2019-05-18T13:27:17.048Z,22.74
2019-05-18T13:30:23.955Z,22.73
2019-05-18T13:33:30.306Z,22.63
2019-05-18T13:36:36.787Z,22.50
2019-05-18T13:39:43.206Z,22.36
2019-05-18T13:42:49.652Z,22.30
2019-05-18T13:45:57.331Z,22.28
2019-05-18T13:49:04.445Z,22.22
2019-05-18T13:52:10.952Z,22.21
2019-05-18T13:55:17.875Z,22.23
2019-05-18T13:58:24.313Z,22.39
2019-05-18T14:01:30.711Z,22.33
2019-05-18T14:04:37.168Z,22.34
2019-05-18T14:07:43.608Z,22.30
2019-05-18T14:10:50.018Z,22.28
2019-05-18T14:13:58.085Z,22.23
2019-05-18T14:17:05.973Z,22.14
2019-05-18T14:20:12.900Z,22.09
2019-05-18T14:23:19.454Z,21.99
2019-05-18T14:26:27.387Z,21.92
2019-05-18T14:29:33.882Z,21.83
2019-05-18T14:32:40.417Z,21.79
2019-05-18T14:35:46.927Z,21.68
2019-05-18T14:38:56.752Z,21.59
2019-05-18T14:42:01.605Z,21.55
2019-05-18T14:45:08.337Z,21.52
2019-05-18T14:48:14.813Z,21.42
2019-05-18T14:51:22.123Z,21.39
2019-05-18T14:54:28.658Z,21.24
2019-05-18T14:57:36.444Z,21.11
2019-05-18T15:00:45.906Z,21.11
2019-05-18T15:03:58.574Z,20.94
2019-05-18T15:07:05.143Z,20.93
2019-05-18T15:10:12.683Z,20.81
2019-05-18T15:13:19.554Z,20.81
2019-05-18T15:16:26.051Z,20.68
2019-05-18T15:19:32.520Z,20.58
2019-05-18T15:22:39.038Z,20.58
2019-05-18T15:25:50.604Z,20.48
2019-05-18T15:28:53.593Z,20.45
2019-05-18T15:32:00.042Z,20.45
2019-05-18T15:35:07.092Z,20.42
2019-05-18T15:38:13.492Z,20.51
2019-05-18T15:41:20.141Z,20.61
2019-05-18T15:44:26.958Z,20.70
2019-05-18T15:47:33.840Z,20.76
2019-05-18T15:50:40.280Z,20.82
2019-05-18T15:53:47.189Z,20.87
2019-05-18T15:56:54.345Z,21.00
2019-05-18T16:00:01.331Z,21.00
2019-05-18T16:03:07.940Z,21.00
2019-05-18T16:06:14.523Z,20.85
2019-05-18T16:09:21.161Z,20.78
2019-05-18T16:12:27.671Z,20.70
2019-05-18T16:15:34.152Z,20.64
2019-05-18T16:18:40.600Z,20.50
2019-05-18T16:21:47.168Z,20.43
2019-05-18T16:24:54.672Z,20.31
2019-05-18T16:28:01.155Z,20.22
2019-05-18T16:31:07.687Z,20.11
2019-05-18T16:34:14.351Z,19.94
2019-05-18T16:37:20.881Z,19.94
2019-05-18T16:40:27.400Z,19.90
2019-05-18T16:43:33.930Z,19.79
2019-05-18T16:46:40.343Z,19.69
2019-05-18T16:49:47.021Z,19.64
2019-05-18T16:52:53.501Z,19.54
2019-05-18T16:56:00.605Z,19.46
2019-05-18T16:59:07.169Z,19.26
2019-05-18T17:02:13.813Z,19.26
2019-05-18T17:05:20.676Z,19.15
2019-05-18T17:08:27.311Z,19.04
2019-05-18T17:11:33.754Z,18.97
2019-05-18T17:14:40.352Z,18.94
2019-05-18T17:17:46.992Z,18.83
2019-05-18T17:20:54.198Z,18.70
2019-05-18T17:24:00.777Z,18.62
2019-05-18T17:27:07.317Z,18.50
2019-05-18T17:30:14.069Z,18.47
2019-05-18T17:33:20.575Z,18.32
2019-05-18T17:36:27.094Z,18.34
2019-05-18T17:39:33.569Z,18.29
2019-05-18T17:42:40.015Z,18.23
2019-05-18T17:45:46.505Z,18.11
2019-05-18T17:48:53.078Z,18.08
2019-05-18T17:51:59.670Z,17.92
2019-05-18T17:55:06.272Z,17.86
2019-05-18T17:58:13.121Z,17.83
2019-05-18T18:01:19.691Z,17.76
2019-05-18T18:04:26.247Z,17.66
2019-05-18T18:07:32.794Z,17.64
2019-05-18T18:10:39.406Z,17.57
2019-05-18T18:13:45.977Z,17.50
2019-05-18T18:16:52.507Z,17.55
2019-05-18T18:19:59.011Z,17.32
2019-05-18T18:23:05.542Z,17.32
2019-05-18T18:26:12.076Z,17.30
2019-05-18T18:29:18.820Z,17.30
2019-05-18T18:32:25.364Z,17.31
2019-05-18T18:35:33.328Z,17.34
2019-05-18T18:38:39.928Z,17.33
2019-05-18T18:41:46.606Z,17.28
2019-05-18T18:44:53.043Z,17.25
2019-05-18T18:48:00.698Z,17.22
2019-05-18T18:51:07.267Z,17.16
2019-05-18T18:54:14.478Z,17.14
2019-05-18T18:57:20.844Z,17.02
2019-05-18T19:00:27.775Z,17.03
2019-05-18T19:03:34.324Z,16.97
2019-05-18T19:06:41.360Z,16.98
2019-05-18T19:09:47.913Z,16.97
2019-05-18T19:12:54.421Z,16.90
2019-05-18T19:16:01.159Z,16.81
2019-05-18T19:19:07.743Z,16.81
2019-05-18T19:22:14.357Z,16.76
2019-05-18T19:25:21.078Z,16.70
2019-05-18T19:28:27.657Z,16.66
2019-05-18T19:31:35.604Z,16.56
2019-05-18T19:34:42.035Z,16.55
2019-05-18T19:37:48.492Z,16.46
2019-05-18T19:40:55.155Z,16.51
2019-05-18T19:44:01.912Z,16.46
2019-05-18T19:47:08.359Z,16.37
2019-05-18T19:50:16.265Z,16.38
2019-05-18T19:53:22.827Z,16.36
2019-05-18T19:56:29.337Z,16.36
2019-05-18T19:59:35.850Z,16.36
2019-05-18T20:02:43.603Z,16.31
2019-05-18T20:05:50.124Z,16.21
2019-05-18T20:08:56.642Z,16.25
2019-05-18T20:12:03.125Z,16.22
2019-05-18T20:15:10.063Z,16.20
2019-05-18T20:18:17.824Z,16.17
2019-05-18T20:21:24.350Z,16.13
2019-05-18T20:24:30.740Z,16.14
2019-05-18T20:27:37.273Z,16.10
2019-05-18T20:30:43.897Z,16.06
2019-05-18T20:33:50.378Z,15.96
2019-05-18T20:36:56.844Z,15.86
2019-05-18T20:40:03.391Z,15.90
2019-05-18T20:43:10.004Z,15.84
2019-05-18T20:46:16.451Z,15.82
2019-05-18T20:49:22.959Z,15.80
2019-05-18T20:52:29.489Z,15.73
2019-05-18T20:55:35.998Z,15.69
2019-05-18T20:58:42.970Z,15.68
2019-05-18T21:01:49.456Z,15.69
2019-05-18T21:04:57.185Z,15.69
2019-05-18T21:08:03.636Z,15.68
2019-05-18T21:11:10.164Z,15.60
2019-05-18T21:14:16.624Z,15.50
2019-05-18T21:17:23.047Z,15.50
2019-05-18T21:20:29.531Z,15.54
2019-05-18T21:23:35.870Z,15.56
2019-05-18T21:26:42.275Z,15.49
2019-05-18T21:29:48.859Z,15.43
2019-05-18T21:32:55.372Z,15.45
2019-05-18T21:36:02.590Z,15.34
2019-05-18T21:39:12.811Z,15.26
2019-05-18T21:42:19.220Z,15.26
2019-05-18T21:45:25.790Z,15.28
2019-05-18T21:48:32.287Z,15.27
2019-05-18T21:51:38.775Z,15.24
2019-05-18T21:54:45.310Z,15.14
2019-05-18T21:57:52.002Z,15.09
2019-05-18T22:00:58.527Z,15.05
2019-05-18T22:04:05.410Z,15.07
2019-05-18T22:07:12.703Z,14.91
2019-05-18T22:10:25.855Z,14.91
2019-05-18T22:13:29.332Z,14.94
2019-05-18T22:16:35.795Z,14.95
2019-05-18T22:19:42.226Z,14.94
2019-05-18T22:22:48.757Z,14.88
2019-05-18T22:25:57.138Z,14.88
2019-05-18T22:29:03.642Z,14.83
2019-05-18T22:32:11.426Z,14.79
2019-05-18T22:35:19.455Z,14.83
2019-05-18T22:38:29.329Z,14.83
2019-05-18T22:41:37.825Z,14.60
2019-05-18T22:44:48.762Z,14.83
2019-05-18T22:47:55.206Z,14.79
2019-05-18T22:51:01.874Z,14.70
2019-05-18T22:54:09.488Z,14.73
2019-05-18T22:57:16.027Z,14.69
2019-05-18T23:00:22.522Z,14.69
2019-05-18T23:03:29.739Z,14.69
2019-05-18T23:06:55.539Z,14.68
2019-05-18T23:10:03.994Z,14.65
2019-05-18T23:13:10.461Z,14.67
2019-05-18T23:16:17.022Z,14.68
2019-05-18T23:19:24.504Z,14.65
2019-05-18T23:22:32.641Z,14.62
2019-05-18T23:25:39.068Z,14.54
2019-05-18T23:28:45.567Z,14.56
2019-05-18T23:31:52.012Z,14.54
2019-05-18T23:34:58.424Z,14.45
2019-05-18T23:38:04.982Z,14.40
2019-05-18T23:41:11.506Z,14.40
2019-05-18T23:44:17.996Z,14.39
2019-05-18T23:47:24.633Z,14.35
2019-05-18T23:50:31.193Z,14.29
2019-05-18T23:53:37.662Z,14.33
2019-05-18T23:56:44.038Z,14.30
2019-05-18T23:59:51.130Z,14.32
